sensor_id;sensor_type;location;lat;lon;timestamp;pressure;altitude;pressure_sealevel;temperature;humidity
40908;BME280;51055;59.436;24.778;2023-10-08T00:01:20;99537.03;;;6.76;65.26
40908;BME280;51055;59.436;24.778;2023-10-08T00:03:49;99552.84;;;6.76;65.56
40908;BME280;51055;59.436;24.778;2023-10-08T00:06:20;99549.97;;;6.79;66.55
40908;BME280;51055;59.436;24.778;2023-10-08T00:08:49;99555.94;;;6.81;67.29
40908;BME280;51055;59.436;24.778;2023-10-08T00:11:18;99547.59;;;6.76;66.45
40908;BME280;51055;59.436;24.778;2023-10-08T00:13:46;99539.69;;;6.76;65.92
40908;BME280;51055;59.436;24.778;2023-10-08T00:16:16;99585.31;;;6.77;67.46
40908;BME280;51055;59.436;24.778;2023-10-08T00:18:45;99569.03;;;6.72;66.02
40908;BME280;51055;59.436;24.778;2023-10-08T00:21:18;99558.25;;;6.75;66.48
40908;BME280;51055;59.436;24.778;2023-10-08T00:23:47;99570.72;;;6.73;66.73
40908;BME280;51055;59.436;24.778;2023-10-08T00:26:28;99555.00;;;6.71;65.93
40908;BME280;51055;59.436;24.778;2023-10-08T00:29:02;99549.88;;;6.70;65.74
40908;BME280;51055;59.436;24.778;2023-10-08T00:31:34;99549.16;;;6.68;65.61
40908;BME280;51055;59.436;24.778;2023-10-08T00:34:06;99551.31;;;6.74;67.20
40908;BME280;51055;59.436;24.778;2023-10-08T00:36:35;99549.75;;;6.71;65.75
40908;BME280;51055;59.436;24.778;2023-10-08T00:39:04;99550.97;;;6.67;65.47
40908;BME280;51055;59.436;24.778;2023-10-08T00:41:42;99548.09;;;6.70;66.58
40908;BME280;51055;59.436;24.778;2023-10-08T00:44:12;99555.53;;;6.65;65.49
40908;BME280;51055;59.436;24.778;2023-10-08T00:46:43;99549.91;;;6.59;65.05
40908;BME280;51055;59.436;24.778;2023-10-08T00:49:20;99556.38;;;6.66;65.22
40908;BME280;51055;59.436;24.778;2023-10-08T00:51:53;99553.72;;;6.66;65.14
40908;BME280;51055;59.436;24.778;2023-10-08T00:54:28;99545.81;;;6.66;66.89
40908;BME280;51055;59.436;24.778;2023-10-08T00:57:00;99545.13;;;6.64;65.32
40908;BME280;51055;59.436;24.778;2023-10-08T00:59:33;99545.50;;;6.59;65.08
40908;BME280;51055;59.436;24.778;2023-10-08T01:02:12;99543.69;;;6.60;64.76
40908;BME280;51055;59.436;24.778;2023-10-08T01:04:47;99540.66;;;6.64;66.09
40908;BME280;51055;59.436;24.778;2023-10-08T01:07:18;99550.59;;;6.72;68.36
40908;BME280;51055;59.436;24.778;2023-10-08T01:09:46;99550.47;;;6.73;69.03
40908;BME280;51055;59.436;24.778;2023-10-08T01:12:26;99553.97;;;6.63;66.55
40908;BME280;51055;59.436;24.778;2023-10-08T01:15:01;99529.69;;;6.59;66.50
40908;BME280;51055;59.436;24.778;2023-10-08T01:17:57;99534.69;;;6.62;67.11
40908;BME280;51055;59.436;24.778;2023-10-08T01:20:27;99555.31;;;6.57;66.59
40908;BME280;51055;59.436;24.778;2023-10-08T01:23:14;99542.75;;;6.61;67.30
40908;BME280;51055;59.436;24.778;2023-10-08T01:25:45;99546.44;;;6.58;66.42
40908;BME280;51055;59.436;24.778;2023-10-08T01:28:19;99550.16;;;6.56;65.82
40908;BME280;51055;59.436;24.778;2023-10-08T01:31:00;99550.06;;;6.57;66.07
40908;BME280;51055;59.436;24.778;2023-10-08T01:33:31;99550.16;;;6.56;65.10
40908;BME280;51055;59.436;24.778;2023-10-08T01:36:00;99548.47;;;6.55;64.40
40908;BME280;51055;59.436;24.778;2023-10-08T01:38:31;99551.25;;;6.53;66.13
40908;BME280;51055;59.436;24.778;2023-10-08T01:41:03;99546.34;;;6.60;67.67
40908;BME280;51055;59.436;24.778;2023-10-08T01:43:33;99542.00;;;6.59;67.53
40908;BME280;51055;59.436;24.778;2023-10-08T01:46:03;99546.44;;;6.58;67.45
40908;BME280;51055;59.436;24.778;2023-10-08T01:48:32;99558.22;;;6.54;68.02
40908;BME280;51055;59.436;24.778;2023-10-08T01:51:05;99555.59;;;6.54;69.15
40908;BME280;51055;59.436;24.778;2023-10-08T01:53:39;99553.31;;;6.50;67.24
40908;BME280;51055;59.436;24.778;2023-10-08T01:56:07;99562.31;;;6.47;66.37
40908;BME280;51055;59.436;24.778;2023-10-08T01:58:38;99573.44;;;6.51;67.65
40908;BME280;51055;59.436;24.778;2023-10-08T02:01:06;99554.16;;;6.50;67.74
40908;BME280;51055;59.436;24.778;2023-10-08T02:03:39;99572.84;;;6.47;67.12
40908;BME280;51055;59.436;24.778;2023-10-08T02:06:09;99557.38;;;6.54;68.88
40908;BME280;51055;59.436;24.778;2023-10-08T02:08:37;99567.44;;;6.49;68.68
40908;BME280;51055;59.436;24.778;2023-10-08T02:11:05;99569.47;;;6.45;67.61
40908;BME280;51055;59.436;24.778;2023-10-08T02:13:33;99551.03;;;6.45;68.24
40908;BME280;51055;59.436;24.778;2023-10-08T02:16:02;99568.16;;;6.51;68.00
40908;BME280;51055;59.436;24.778;2023-10-08T02:18:30;99562.06;;;6.50;68.67
40908;BME280;51055;59.436;24.778;2023-10-08T02:20:58;99571.84;;;6.48;69.02
40908;BME280;51055;59.436;24.778;2023-10-08T02:23:26;99574.38;;;6.50;69.73
40908;BME280;51055;59.436;24.778;2023-10-08T02:25:55;99573.19;;;6.43;67.84
40908;BME280;51055;59.436;24.778;2023-10-08T02:28:23;99569.72;;;6.42;66.98
40908;BME280;51055;59.436;24.778;2023-10-08T02:30:51;99580.25;;;6.42;68.03
40908;BME280;51055;59.436;24.778;2023-10-08T02:33:19;99570.56;;;6.43;68.09
40908;BME280;51055;59.436;24.778;2023-10-08T02:35:47;99581.00;;;6.44;67.68
40908;BME280;51055;59.436;24.778;2023-10-08T02:38:17;99580.41;;;6.41;67.53
40908;BME280;51055;59.436;24.778;2023-10-08T02:40:46;99559.19;;;6.42;67.88
40908;BME280;51055;59.436;24.778;2023-10-08T02:43:16;99589.00;;;6.43;67.44
40908;BME280;51055;59.436;24.778;2023-10-08T02:45:45;99579.81;;;6.37;67.25
40908;BME280;51055;59.436;24.778;2023-10-08T02:48:17;99593.56;;;6.41;68.64
40908;BME280;51055;59.436;24.778;2023-10-08T02:50:46;99579.31;;;6.43;67.73
40908;BME280;51055;59.436;24.778;2023-10-08T02:53:14;99582.28;;;6.39;67.75
40908;BME280;51055;59.436;24.778;2023-10-08T02:55:53;99595.47;;;6.39;68.42
40908;BME280;51055;59.436;24.778;2023-10-08T02:58:21;99588.53;;;6.38;68.13
40908;BME280;51055;59.436;24.778;2023-10-08T03:00:49;99619.06;;;6.40;68.01
40908;BME280;51055;59.436;24.778;2023-10-08T03:03:18;99598.00;;;6.40;67.76
40908;BME280;51055;59.436;24.778;2023-10-08T03:05:49;99592.59;;;6.42;68.40
40908;BME280;51055;59.436;24.778;2023-10-08T03:08:19;99586.38;;;6.43;69.01
40908;BME280;51055;59.436;24.778;2023-10-08T03:10:51;99602.53;;;6.38;68.44
40908;BME280;51055;59.436;24.778;2023-10-08T03:13:30;99601.81;;;6.36;69.25
40908;BME280;51055;59.436;24.778;2023-10-08T03:15:58;99586.16;;;6.35;68.76
40908;BME280;51055;59.436;24.778;2023-10-08T03:18:29;99600.88;;;6.37;69.31
40908;BME280;51055;59.436;24.778;2023-10-08T03:21:05;99591.19;;;6.38;69.82
40908;BME280;51055;59.436;24.778;2023-10-08T03:23:51;99605.41;;;6.35;69.69
40908;BME280;51055;59.436;24.778;2023-10-08T03:26:20;99580.88;;;6.35;69.90
40908;BME280;51055;59.436;24.778;2023-10-08T03:29:01;99587.22;;;6.32;70.26
40908;BME280;51055;59.436;24.778;2023-10-08T03:31:33;99611.50;;;6.36;71.65
40908;BME280;51055;59.436;24.778;2023-10-08T03:34:17;99591.28;;;6.36;71.78
40908;BME280;51055;59.436;24.778;2023-10-08T03:36:48;99586.88;;;6.37;72.00
40908;BME280;51055;59.436;24.778;2023-10-08T03:39:18;99586.50;;;6.30;69.93
40908;BME280;51055;59.436;24.778;2023-10-08T03:41:49;99599.69;;;6.30;70.08
40908;BME280;51055;59.436;24.778;2023-10-08T03:44:33;99601.81;;;6.36;72.61
40908;BME280;51055;59.436;24.778;2023-10-08T03:47:05;99613.56;;;6.32;71.50
40908;BME280;51055;59.436;24.778;2023-10-08T03:49:38;99621.84;;;6.27;70.83
40908;BME280;51055;59.436;24.778;2023-10-08T03:52:13;99621.00;;;6.27;70.60
40908;BME280;51055;59.436;24.778;2023-10-08T03:54:40;99612.84;;;6.30;70.93
40908;BME280;51055;59.436;24.778;2023-10-08T03:57:16;99607.34;;;6.22;69.31
40908;BME280;51055;59.436;24.778;2023-10-08T03:59:53;99630.09;;;6.23;72.28
40908;BME280;51055;59.436;24.778;2023-10-08T04:02:26;99612.84;;;6.19;70.65
40908;BME280;51055;59.436;24.778;2023-10-08T04:05:09;99634.41;;;6.24;72.60
40908;BME280;51055;59.436;24.778;2023-10-08T04:07:46;99606.97;;;6.26;73.01
40908;BME280;51055;59.436;24.778;2023-10-08T04:10:31;99622.78;;;6.26;73.59
40908;BME280;51055;59.436;24.778;2023-10-08T04:13:05;99621.09;;;6.25;72.95
40908;BME280;51055;59.436;24.778;2023-10-08T04:15:37;99628.88;;;6.27;73.14
40908;BME280;51055;59.436;24.778;2023-10-08T04:18:09;99629.38;;;6.21;71.74
40908;BME280;51055;59.436;24.778;2023-10-08T04:20:37;99613.34;;;6.24;72.94
40908;BME280;51055;59.436;24.778;2023-10-08T04:23:06;99627.59;;;6.21;73.24
40908;BME280;51055;59.436;24.778;2023-10-08T04:25:41;99634.88;;;6.18;70.58
40908;BME280;51055;59.436;24.778;2023-10-08T04:28:10;99637.97;;;6.23;73.48
40908;BME280;51055;59.436;24.778;2023-10-08T04:30:45;99627.09;;;6.16;71.56
40908;BME280;51055;59.436;24.778;2023-10-08T04:33:12;99643.03;;;6.15;71.00
40908;BME280;51055;59.436;24.778;2023-10-08T04:35:42;99651.38;;;6.20;73.20
40908;BME280;51055;59.436;24.778;2023-10-08T04:38:19;99658.94;;;6.24;74.17
40908;BME280;51055;59.436;24.778;2023-10-08T04:40:49;99646.72;;;6.23;73.48
40908;BME280;51055;59.436;24.778;2023-10-08T04:43:22;99658.69;;;6.16;72.73
40908;BME280;51055;59.436;24.778;2023-10-08T04:46:02;99666.34;;;6.19;72.61
40908;BME280;51055;59.436;24.778;2023-10-08T04:48:36;99654.13;;;6.18;72.08
40908;BME280;51055;59.436;24.778;2023-10-08T04:51:04;99660.59;;;6.25;73.74
40908;BME280;51055;59.436;24.778;2023-10-08T04:53:33;99668.63;;;6.24;74.94
40908;BME280;51055;59.436;24.778;2023-10-08T04:56:09;99665.41;;;6.20;73.34
40908;BME280;51055;59.436;24.778;2023-10-08T04:58:47;99660.25;;;6.19;72.60
40908;BME280;51055;59.436;24.778;2023-10-08T05:01:16;99662.88;;;6.19;73.57
40908;BME280;51055;59.436;24.778;2023-10-08T05:03:49;99669.94;;;6.18;73.77
40908;BME280;51055;59.436;24.778;2023-10-08T05:06:24;99671.00;;;6.16;72.30
40908;BME280;51055;59.436;24.778;2023-10-08T05:11:51;99670.41;;;6.12;71.97
40908;BME280;51055;59.436;24.778;2023-10-08T05:14:24;99679.28;;;6.11;71.32
40908;BME280;51055;59.436;24.778;2023-10-08T05:17:05;99685.38;;;6.12;72.52
40908;BME280;51055;59.436;24.778;2023-10-08T05:19:49;99674.50;;;6.16;72.17
40908;BME280;51055;59.436;24.778;2023-10-08T05:22:23;99671.84;;;6.16;73.03
40908;BME280;51055;59.436;24.778;2023-10-08T05:24:57;99674.97;;;6.21;72.68
40908;BME280;51055;59.436;24.778;2023-10-08T05:27:39;99677.81;;;6.18;72.56
40908;BME280;51055;59.436;24.778;2023-10-08T05:30:16;99684.78;;;6.19;74.65
40908;BME280;51055;59.436;24.778;2023-10-08T05:32:53;99695.22;;;6.21;75.13
40908;BME280;51055;59.436;24.778;2023-10-08T05:35:41;99687.41;;;6.19;76.84
40908;BME280;51055;59.436;24.778;2023-10-08T05:38:11;99687.41;;;6.19;74.58
40908;BME280;51055;59.436;24.778;2023-10-08T05:41:06;99693.75;;;6.17;72.30
40908;BME280;51055;59.436;24.778;2023-10-08T05:43:54;99688.59;;;6.15;72.10
40908;BME280;51055;59.436;24.778;2023-10-08T05:46:41;99712.91;;;6.19;73.45
40908;BME280;51055;59.436;24.778;2023-10-08T05:49:24;99696.97;;;6.09;69.75
40908;BME280;51055;59.436;24.778;2023-10-08T05:51:58;99696.75;;;6.12;71.99
40908;BME280;51055;59.436;24.778;2023-10-08T05:54:32;99697.84;;;6.21;74.09
40908;BME280;51055;59.436;24.778;2023-10-08T05:59:47;99717.13;;;6.21;73.43
40908;BME280;51055;59.436;24.778;2023-10-08T06:02:26;99711.25;;;6.18;73.94
40908;BME280;51055;59.436;24.778;2023-10-08T06:05:08;99713.75;;;6.19;73.96
40908;BME280;51055;59.436;24.778;2023-10-08T06:07:52;99726.53;;;6.13;73.57
40908;BME280;51055;59.436;24.778;2023-10-08T06:10:31;99720.94;;;6.17;75.69
40908;BME280;51055;59.436;24.778;2023-10-08T06:15:51;99722.59;;;6.18;76.06
40908;BME280;51055;59.436;24.778;2023-10-08T06:18:33;99734.69;;;6.21;77.74
40908;BME280;51055;59.436;24.778;2023-10-08T06:21:03;99734.44;;;6.13;74.20
40908;BME280;51055;59.436;24.778;2023-10-08T06:23:37;99749.75;;;6.19;77.29
40908;BME280;51055;59.436;24.778;2023-10-08T06:26:05;99745.47;;;6.18;77.40
40908;BME280;51055;59.436;24.778;2023-10-08T06:28:43;99743.88;;;6.15;75.78
40908;BME280;51055;59.436;24.778;2023-10-08T06:31:11;99760.53;;;6.16;76.83
40908;BME280;51055;59.436;24.778;2023-10-08T06:33:40;99767.72;;;6.14;74.78
40908;BME280;51055;59.436;24.778;2023-10-08T06:36:09;99767.84;;;6.23;77.32
40908;BME280;51055;59.436;24.778;2023-10-08T06:38:45;99769.41;;;6.26;77.20
40908;BME280;51055;59.436;24.778;2023-10-08T06:41:17;99778.25;;;6.25;77.32
40908;BME280;51055;59.436;24.778;2023-10-08T06:44:07;99772.28;;;6.23;78.42
40908;BME280;51055;59.436;24.778;2023-10-08T06:46:42;99793.00;;;6.27;80.63
40908;BME280;51055;59.436;24.778;2023-10-08T06:49:10;99782.47;;;6.27;79.85
40908;BME280;51055;59.436;24.778;2023-10-08T06:51:42;99797.66;;;6.24;80.61
40908;BME280;51055;59.436;24.778;2023-10-08T06:54:12;99793.34;;;6.23;81.52
40908;BME280;51055;59.436;24.778;2023-10-08T06:56:45;99801.00;;;6.26;81.39
40908;BME280;51055;59.436;24.778;2023-10-08T06:59:20;99811.41;;;6.16;78.58
40908;BME280;51055;59.436;24.778;2023-10-08T07:01:51;99823.47;;;6.19;77.85
40908;BME280;51055;59.436;24.778;2023-10-08T07:04:19;99820.19;;;6.28;79.86
40908;BME280;51055;59.436;24.778;2023-10-08T07:06:50;99834.75;;;6.32;81.52
40908;BME280;51055;59.436;24.778;2023-10-08T07:09:18;99841.59;;;6.23;79.14
40908;BME280;51055;59.436;24.778;2023-10-08T07:11:56;99839.91;;;6.22;80.29
40908;BME280;51055;59.436;24.778;2023-10-08T07:14:26;99838.34;;;6.20;79.92
40908;BME280;51055;59.436;24.778;2023-10-08T07:16:59;99842.16;;;6.16;81.26
40908;BME280;51055;59.436;24.778;2023-10-08T07:19:30;99858.69;;;6.18;82.71
40908;BME280;51055;59.436;24.778;2023-10-08T07:22:07;99868.94;;;6.10;81.91
40908;BME280;51055;59.436;24.778;2023-10-08T07:24:46;99850.84;;;6.05;82.25
40908;BME280;51055;59.436;24.778;2023-10-08T07:27:19;99864.19;;;6.15;85.25
40908;BME280;51055;59.436;24.778;2023-10-08T07:29:57;99874.34;;;6.08;82.62
40908;BME280;51055;59.436;24.778;2023-10-08T07:32:29;99886.53;;;6.09;81.67
40908;BME280;51055;59.436;24.778;2023-10-08T07:34:58;99873.59;;;6.06;82.98
40908;BME280;51055;59.436;24.778;2023-10-08T07:37:42;99891.16;;;6.06;84.38
40908;BME280;51055;59.436;24.778;2023-10-08T07:40:13;99903.06;;;6.11;86.70
40908;BME280;51055;59.436;24.778;2023-10-08T07:42:42;99888.81;;;6.14;86.47
40908;BME280;51055;59.436;24.778;2023-10-08T07:45:11;99904.41;;;6.17;86.30
40908;BME280;51055;59.436;24.778;2023-10-08T07:47:45;99905.25;;;6.17;85.35
40908;BME280;51055;59.436;24.778;2023-10-08T07:50:14;99910.13;;;6.11;83.94
40908;BME280;51055;59.436;24.778;2023-10-08T07:52:42;99938.50;;;6.18;84.58
40908;BME280;51055;59.436;24.778;2023-10-08T07:55:12;99931.56;;;6.17;85.20
40908;BME280;51055;59.436;24.778;2023-10-08T07:57:46;99920.81;;;6.20;85.80
40908;BME280;51055;59.436;24.778;2023-10-08T08:00:14;99926.53;;;6.14;83.63
40908;BME280;51055;59.436;24.778;2023-10-08T08:02:46;99933.22;;;6.18;85.34
40908;BME280;51055;59.436;24.778;2023-10-08T08:05:13;99938.28;;;6.21;83.01
40908;BME280;51055;59.436;24.778;2023-10-08T08:07:44;99953.63;;;6.27;81.26
40908;BME280;51055;59.436;24.778;2023-10-08T08:10:17;99961.31;;;6.31;81.64
40908;BME280;51055;59.436;24.778;2023-10-08T08:12:45;99947.06;;;6.33;82.14
40908;BME280;51055;59.436;24.778;2023-10-08T08:15:13;99971.06;;;6.41;82.82
40908;BME280;51055;59.436;24.778;2023-10-08T08:17:45;99970.84;;;6.44;79.20
40908;BME280;51055;59.436;24.778;2023-10-08T08:20:16;99973.72;;;6.52;79.56
40908;BME280;51055;59.436;24.778;2023-10-08T08:22:48;99977.28;;;6.51;77.47
40908;BME280;51055;59.436;24.778;2023-10-08T08:25:22;99989.06;;;6.58;77.38
40908;BME280;51055;59.436;24.778;2023-10-08T08:28:02;99996.63;;;6.63;78.35
40908;BME280;51055;59.436;24.778;2023-10-08T08:30:33;99998.94;;;6.67;80.11
40908;BME280;51055;59.436;24.778;2023-10-08T08:33:04;100009.69;;;6.64;76.20
40908;BME280;51055;59.436;24.778;2023-10-08T08:35:38;99998.09;;;6.67;74.71
40908;BME280;51055;59.436;24.778;2023-10-08T08:38:06;99989.97;;;6.70;74.25
40908;BME280;51055;59.436;24.778;2023-10-08T08:40:36;99996.69;;;6.74;73.35
40908;BME280;51055;59.436;24.778;2023-10-08T08:43:05;100001.59;;;6.78;73.80
40908;BME280;51055;59.436;24.778;2023-10-08T08:45:35;100010.34;;;6.79;72.72
40908;BME280;51055;59.436;24.778;2023-10-08T08:48:03;100018.88;;;6.82;74.48
40908;BME280;51055;59.436;24.778;2023-10-08T08:50:32;100031.53;;;6.77;74.00
40908;BME280;51055;59.436;24.778;2023-10-08T08:53:01;100022.72;;;6.90;75.57
40908;BME280;51055;59.436;24.778;2023-10-08T08:55:32;100033.16;;;6.91;75.89
40908;BME280;51055;59.436;24.778;2023-10-08T08:58:00;100041.41;;;6.87;74.13
40908;BME280;51055;59.436;24.778;2023-10-08T09:00:29;100046.31;;;6.91;76.63
40908;BME280;51055;59.436;24.778;2023-10-08T09:02:58;100071.25;;;6.87;75.79
40908;BME280;51055;59.436;24.778;2023-10-08T09:05:25;100080.34;;;6.83;74.44
40908;BME280;51055;59.436;24.778;2023-10-08T09:07:56;100092.06;;;6.79;74.77
40908;BME280;51055;59.436;24.778;2023-10-08T09:10:26;100094.38;;;6.84;76.19
40908;BME280;51055;59.436;24.778;2023-10-08T09:12:57;100112.22;;;6.91;76.98
40908;BME280;51055;59.436;24.778;2023-10-08T09:15:28;100114.38;;;6.86;76.03
40908;BME280;51055;59.436;24.778;2023-10-08T09:17:56;100122.13;;;6.76;75.61
40908;BME280;51055;59.436;24.778;2023-10-08T09:20:24;100132.53;;;6.78;76.47
40908;BME280;51055;59.436;24.778;2023-10-08T09:25:46;100136.88;;;6.79;77.00
40908;BME280;51055;59.436;24.778;2023-10-08T09:28:18;100136.97;;;6.77;77.70
40908;BME280;51055;59.436;24.778;2023-10-08T09:30:46;100162.16;;;6.81;77.20
40908;BME280;51055;59.436;24.778;2023-10-08T09:33:15;100166.69;;;6.79;75.46
40908;BME280;51055;59.436;24.778;2023-10-08T09:35:46;100165.63;;;6.82;72.90
40908;BME280;51055;59.436;24.778;2023-10-08T09:38:14;100170.44;;;6.88;73.66
40908;BME280;51055;59.436;24.778;2023-10-08T09:40:51;100176.31;;;6.80;72.07
40908;BME280;51055;59.436;24.778;2023-10-08T09:43:22;100176.09;;;6.84;73.22
40908;BME280;51055;59.436;24.778;2023-10-08T09:46:18;100189.03;;;6.87;72.68
40908;BME280;51055;59.436;24.778;2023-10-08T09:48:51;100193.56;;;6.85;72.40
40908;BME280;51055;59.436;24.778;2023-10-08T09:51:23;100198.66;;;6.75;72.05
40908;BME280;51055;59.436;24.778;2023-10-08T09:54:18;100198.44;;;6.78;70.92
40908;BME280;51055;59.436;24.778;2023-10-08T09:56:48;100207.19;;;6.78;69.19
40908;BME280;51055;59.436;24.778;2023-10-08T09:59:16;100205.16;;;6.82;69.24
40908;BME280;51055;59.436;24.778;2023-10-08T10:01:44;100209.38;;;6.85;70.01
40908;BME280;51055;59.436;24.778;2023-10-08T10:04:22;100220.53;;;6.88;70.91
40908;BME280;51055;59.436;24.778;2023-10-08T10:06:55;100217.81;;;6.90;69.04
40908;BME280;51055;59.436;24.778;2023-10-08T10:09:26;100223.72;;;6.93;68.92
40908;BME280;51055;59.436;24.778;2023-10-08T10:11:54;100238.31;;;6.97;70.62
40908;BME280;51055;59.436;24.778;2023-10-08T10:14:23;100246.25;;;6.97;70.84
40908;BME280;51055;59.436;24.778;2023-10-08T10:17:21;100246.75;;;7.02;70.85
40908;BME280;51055;59.436;24.778;2023-10-08T10:20:09;100241.25;;;7.05;71.06
40908;BME280;51055;59.436;24.778;2023-10-08T10:22:42;100251.28;;;7.13;71.85
40908;BME280;51055;59.436;24.778;2023-10-08T10:25:16;100222.75;;;7.18;72.28
40908;BME280;51055;59.436;24.778;2023-10-08T10:30:22;100263.22;;;7.06;72.18
40908;BME280;51055;59.436;24.778;2023-10-08T10:32:52;100265.94;;;7.04;72.40
40908;BME280;51055;59.436;24.778;2023-10-08T10:35:19;100283.22;;;7.08;73.93
40908;BME280;51055;59.436;24.778;2023-10-08T10:37:48;100284.31;;;7.06;73.67
40908;BME280;51055;59.436;24.778;2023-10-08T10:40:24;100289.59;;;7.06;73.15
40908;BME280;51055;59.436;24.778;2023-10-08T10:43:12;100281.53;;;7.07;73.18
40908;BME280;51055;59.436;24.778;2023-10-08T10:45:43;100296.41;;;7.08;73.68
40908;BME280;51055;59.436;24.778;2023-10-08T10:48:12;100301.78;;;7.07;75.03
40908;BME280;51055;59.436;24.778;2023-10-08T10:50:51;100314.97;;;7.07;73.34
40908;BME280;51055;59.436;24.778;2023-10-08T10:53:38;100309.28;;;7.13;75.45
40908;BME280;51055;59.436;24.778;2023-10-08T10:56:13;100312.16;;;7.10;73.85
40908;BME280;51055;59.436;24.778;2023-10-08T10:58:49;100323.50;;;7.10;73.33
40908;BME280;51055;59.436;24.778;2023-10-08T11:01:27;100333.03;;;7.13;73.20
40908;BME280;51055;59.436;24.778;2023-10-08T11:03:57;100350.28;;;7.17;74.96
40908;BME280;51055;59.436;24.778;2023-10-08T11:06:26;100349.13;;;7.21;75.13
40908;BME280;51055;59.436;24.778;2023-10-08T11:08:54;100341.84;;;7.24;75.87
40908;BME280;51055;59.436;24.778;2023-10-08T11:11:28;100352.00;;;7.18;75.56
40908;BME280;51055;59.436;24.778;2023-10-08T11:14:00;100367.09;;;7.16;74.78
40908;BME280;51055;59.436;24.778;2023-10-08T11:16:28;100362.53;;;7.18;76.13
40908;BME280;51055;59.436;24.778;2023-10-08T11:18:59;100373.72;;;7.21;75.67
40908;BME280;51055;59.436;24.778;2023-10-08T11:21:50;100371.94;;;7.22;75.32
40908;BME280;51055;59.436;24.778;2023-10-08T11:24:31;100386.69;;;7.24;75.56
40908;BME280;51055;59.436;24.778;2023-10-08T11:27:02;100377.94;;;7.24;76.17
40908;BME280;51055;59.436;24.778;2023-10-08T11:29:48;100397.47;;;7.21;74.98
40908;BME280;51055;59.436;24.778;2023-10-08T11:32:24;100388.25;;;7.27;75.54
40908;BME280;51055;59.436;24.778;2023-10-08T11:34:57;100409.13;;;7.30;76.19
40908;BME280;51055;59.436;24.778;2023-10-08T11:37:32;100386.81;;;7.23;73.00
40908;BME280;51055;59.436;24.778;2023-10-08T11:40:03;100407.69;;;7.26;73.58
40908;BME280;51055;59.436;24.778;2023-10-08T11:42:44;100412.84;;;7.27;73.81
40908;BME280;51055;59.436;24.778;2023-10-08T11:45:12;100411.50;;;7.22;71.79
40908;BME280;51055;59.436;24.778;2023-10-08T11:47:49;100424.69;;;7.22;72.14
40908;BME280;51055;59.436;24.778;2023-10-08T11:50:17;100430.69;;;7.24;71.53
40908;BME280;51055;59.436;24.778;2023-10-08T11:52:47;100438.16;;;7.30;72.41
40908;BME280;51055;59.436;24.778;2023-10-08T11:55:15;100435.13;;;7.36;73.70
40908;BME280;51055;59.436;24.778;2023-10-08T11:57:47;100438.34;;;7.40;74.58
40908;BME280;51055;59.436;24.778;2023-10-08T12:00:16;100442.91;;;7.38;73.34
40908;BME280;51055;59.436;24.778;2023-10-08T12:02:59;100458.66;;;7.39;75.11
40908;BME280;51055;59.436;24.778;2023-10-08T12:05:30;100447.97;;;7.41;73.41
40908;BME280;51055;59.436;24.778;2023-10-08T12:08:00;100462.84;;;7.42;73.39
40908;BME280;51055;59.436;24.778;2023-10-08T12:10:27;100470.00;;;7.40;72.09
40908;BME280;51055;59.436;24.778;2023-10-08T12:12:58;100478.69;;;7.42;73.22
40908;BME280;51055;59.436;24.778;2023-10-08T12:15:27;100477.53;;;7.46;73.35
40908;BME280;51055;59.436;24.778;2023-10-08T12:18:05;100481.13;;;7.45;72.50
40908;BME280;51055;59.436;24.778;2023-10-08T12:20:39;100493.25;;;7.47;73.73
40908;BME280;51055;59.436;24.778;2023-10-08T12:23:07;100483.44;;;7.49;74.93
40908;BME280;51055;59.436;24.778;2023-10-08T12:25:38;100497.88;;;7.44;74.44
40908;BME280;51055;59.436;24.778;2023-10-08T12:28:05;100511.50;;;7.38;72.14
40908;BME280;51055;59.436;24.778;2023-10-08T12:30:33;100508.03;;;7.37;73.49
40908;BME280;51055;59.436;24.778;2023-10-08T12:33:09;100493.88;;;7.38;73.66
40908;BME280;51055;59.436;24.778;2023-10-08T12:35:40;100530.41;;;7.44;74.44
40908;BME280;51055;59.436;24.778;2023-10-08T12:38:08;100535.03;;;7.41;73.72
40908;BME280;51055;59.436;24.778;2023-10-08T12:40:36;100532.63;;;7.38;72.57
40908;BME280;51055;59.436;24.778;2023-10-08T12:43:21;100538.75;;;7.38;72.47
40908;BME280;51055;59.436;24.778;2023-10-08T12:45:50;100534.94;;;7.42;74.42
40908;BME280;51055;59.436;24.778;2023-10-08T12:48:22;100553.94;;;7.47;73.41
40908;BME280;51055;59.436;24.778;2023-10-08T12:50:52;100569.78;;;7.47;73.07
40908;BME280;51055;59.436;24.778;2023-10-08T12:53:27;100562.78;;;7.46;71.33
40908;BME280;51055;59.436;24.778;2023-10-08T12:56:02;100564.69;;;7.44;70.66
40908;BME280;51055;59.436;24.778;2023-10-08T12:58:35;100572.53;;;7.46;71.92
40908;BME280;51055;59.436;24.778;2023-10-08T13:01:09;100582.31;;;7.44;71.66
40908;BME280;51055;59.436;24.778;2023-10-08T13:03:38;100578.75;;;7.45;71.94
40908;BME280;51055;59.436;24.778;2023-10-08T13:06:09;100597.09;;;7.46;72.75
40908;BME280;51055;59.436;24.778;2023-10-08T13:08:49;100597.31;;;7.43;73.05
40908;BME280;51055;59.436;24.778;2023-10-08T13:11:21;100603.34;;;7.45;73.35
40908;BME280;51055;59.436;24.778;2023-10-08T13:13:53;100613.47;;;7.51;74.06
40908;BME280;51055;59.436;24.778;2023-10-08T13:16:26;100601.34;;;7.49;73.49
40908;BME280;51055;59.436;24.778;2023-10-08T13:18:59;100624.75;;;7.53;74.54
40908;BME280;51055;59.436;24.778;2023-10-08T13:21:27;100626.56;;;7.53;73.44
40908;BME280;51055;59.436;24.778;2023-10-08T13:23:56;100630.88;;;7.54;73.15
40908;BME280;51055;59.436;24.778;2023-10-08T13:26:27;100633.09;;;7.47;71.58
40908;BME280;51055;59.436;24.778;2023-10-08T13:28:59;100635.00;;;7.45;72.27
40908;BME280;51055;59.436;24.778;2023-10-08T13:31:27;100638.50;;;7.46;74.04
40908;BME280;51055;59.436;24.778;2023-10-08T13:33:55;100637.00;;;7.42;73.41
40908;BME280;51055;59.436;24.778;2023-10-08T13:36:30;100652.94;;;7.40;72.69
40908;BME280;51055;59.436;24.778;2023-10-08T13:38:58;100654.63;;;7.41;72.92
40908;BME280;51055;59.436;24.778;2023-10-08T13:41:26;100660.13;;;7.38;72.45